CZFM/ZFM METAR and TAF weather

Enter ICAO airport designator
Station Type Date Time Source
CZFM METAR 2019/05/26 19:00 UTC NOAA

CZFM 261900Z 16007KT 110V170 35SM OVC021 08/03 A2996 RMK SC8 /R0.0/AFT 1400Z/LAST OBS/NXT 271300Z SLP148


Station Type Date Time Source
CZFM Decoded METAR 2019/05/26 19:00 UTC NOAA

Fort Mcpherson Airport, Canada (CZFM) 67-24N 134-51W
May 26, 2019 - 03:00 PM EDT / 2019.05.26 1900 UTC
Wind: from the SSE (160 degrees) at 8 MPH (7 KT) (direction variable):0
Visibility: 35 mile(s):0
Sky conditions: overcast
Temperature: 46 F (8 C)
Dew Point: 37 F (3 C)
Relative Humidity: 70%
Pressure (altimeter): 29.96 in. Hg (1014 hPa)
ob: CZFM 261900Z 16007KT 110V170 35SM OVC021 08/03 A2996 RMK SC8 /R0.0/AFT 1400Z/LAST OBS/NXT 271300Z SLP148
cycle: 19

Station Type Date Time Source
CZFM TAF 2019/05/26 16:00 UTC NOAA

TAF CZFM 261538Z 2616/2619 VRB03KT P6SM OVC015
TEMPO 2616/2619 BKN025
RMK NXT FCST WILL BE ISSUED AT 271445Z

Example: see airport list